»·PEaware :: DAL327 KSFO-KSNA

DAL327 :: KSFO-KSNA

FLIGHT INFORMATION

Flight Status: Arrived
Operator:
Delta Air Lines
More flights by this operator :: More flights under this callsign
Pilot: Kevin M. (7)
Aircraft: BOEING 737-800
(B738)
More flights by this aircraft type
Origin: KSFO San Francisco Intl
United States
Destination: KSNA John Wayne-Orange Co
United States
More flights between these airports :: More routes between these airports
Route: SSTIK4 YYUNG TILLT TILLT2
File this flight plan on PilotEdge
Remarks:
Altitude:
(Current/Filed)
39,000ft
Speed:
(Current/Filed)
468kts
Departed: 22-Oct-19 06:34 PM
Arrived: 22-Oct-19 07:32 PM
Distance/Time
Traveled:
323nm/0:57
Distance/Time
To Go:
Arrived

Flight Plot

Page will automatically refresh every two minutes.

Flight plan parsing failed; only flown route is shown


Map Options




Map Legend


Flown Route
Filed Route
Departure Airport
Arrival Airport
Navaid (VOR, NDB)
Fix

Horizontal Profiles

Position Reports

Time Latitude Longitude Heading Altitude Ground
Speed
22-Oct-19 17:47 37.614595 -122.383153 30 34ft 0kts
22-Oct-19 17:48 37.614595 -122.383153 30 34ft 0kts
22-Oct-19 17:49 37.614595 -122.383153 30 34ft 0kts
22-Oct-19 17:50 37.614595 -122.383153 30 34ft 0kts
22-Oct-19 17:51 37.614595 -122.383153 30 34ft 0kts
22-Oct-19 17:52 37.614595 -122.383153 30 34ft 0kts
22-Oct-19 17:53 37.614595 -122.383153 30 34ft 0kts
22-Oct-19 17:54 37.614595 -122.383153 30 34ft 0kts
22-Oct-19 17:55 37.614595 -122.383153 30 34ft 0kts
22-Oct-19 17:56 37.614407 -122.383287 29 34ft 2kts
22-Oct-19 17:57 37.614052 -122.383700 118 34ft 1kts
22-Oct-19 17:58 37.614091 -122.383777 119 34ft 0kts
22-Oct-19 17:59 37.614091 -122.383777 119 34ft 0kts
22-Oct-19 18:00 37.613651 -122.382757 115 34ft 5kts
22-Oct-19 18:01 37.610316 -122.383886 213 33ft 17kts
22-Oct-19 18:02 37.608984 -122.383588 121 33ft 0kts
22-Oct-19 18:03 37.608984 -122.383588 121 33ft 0kts
22-Oct-19 18:04 37.608984 -122.383588 121 33ft 0kts
22-Oct-19 18:05 37.608984 -122.383588 121 33ft 0kts
22-Oct-19 18:06 37.608984 -122.383588 121 33ft 0kts
22-Oct-19 18:07 37.608984 -122.383588 121 33ft 0kts
22-Oct-19 18:08 37.608984 -122.383588 121 33ft 0kts
22-Oct-19 18:09 37.608984 -122.383588 121 33ft 0kts
22-Oct-19 18:10 37.608984 -122.383588 121 33ft 0kts
22-Oct-19 18:11 37.608984 -122.383588 121 33ft 0kts
22-Oct-19 18:12 37.608984 -122.383588 121 33ft 0kts
22-Oct-19 18:13 37.608984 -122.383588 121 33ft 0kts
22-Oct-19 18:14 37.608984 -122.383588 121 33ft 0kts
22-Oct-19 18:15 37.608984 -122.383588 121 33ft 0kts
22-Oct-19 18:16 37.608984 -122.383588 121 33ft 0kts
22-Oct-19 18:17 37.608984 -122.383588 121 33ft 0kts
22-Oct-19 18:18 37.608984 -122.383588 121 33ft 0kts
22-Oct-19 18:19 37.608984 -122.383588 121 33ft 0kts
22-Oct-19 18:20 37.608984 -122.383588 121 33ft 0kts
22-Oct-19 18:21 37.608984 -122.383588 121 33ft 0kts
22-Oct-19 18:22 37.608984 -122.383588 121 33ft 0kts
22-Oct-19 18:23 37.608984 -122.383588 121 33ft 0kts
22-Oct-19 18:24 37.608984 -122.383588 121 33ft 0kts
22-Oct-19 18:25 37.608984 -122.383588 121 33ft 0kts
22-Oct-19 18:26 37.608984 -122.383588 121 33ft 0kts
22-Oct-19 18:27 37.608984 -122.383588 121 33ft 0kts
22-Oct-19 18:28 37.608984 -122.383588 121 33ft 0kts
22-Oct-19 18:29 37.608984 -122.383588 121 33ft 0kts
22-Oct-19 18:30 37.608984 -122.383588 121 33ft 0kts
22-Oct-19 18:31 37.608984 -122.383588 121 33ft 0kts
22-Oct-19 18:32 37.608984 -122.383588 121 33ft 0kts
22-Oct-19 18:33 37.610899 -122.380990 27 32ft 62kts
22-Oct-19 18:34 37.649107 -122.362291 355 1740ft 170kts
22-Oct-19 18:35 37.704015 -122.378946 299 3245ft 249kts
22-Oct-19 18:36 37.674042 -122.446870 191 6394ft 285kts
22-Oct-19 18:37 37.593302 -122.457608 188 9447ft 300kts
22-Oct-19 18:38 37.504594 -122.472177 188 10855ft 355kts
22-Oct-19 18:39 37.398206 -122.491638 189 12090ft 410kts
22-Oct-19 18:40 37.288611 -122.461743 147 14405ft 428kts
22-Oct-19 18:41 37.186499 -122.379457 147 16760ft 446kts
22-Oct-19 18:42 37.079887 -122.293706 147 18920ft 464kts
22-Oct-19 18:43 36.969674 -122.205380 148 20984ft 479kts
22-Oct-19 18:44 36.855652 -122.114351 148 22878ft 492kts
22-Oct-19 18:45 36.739298 -122.021805 148 24625ft 504kts
22-Oct-19 18:46 36.619567 -121.926933 148 26277ft 516kts
22-Oct-19 18:47 36.498139 -121.831074 148 28267ft 516kts
22-Oct-19 18:48 36.377458 -121.736162 148 30419ft 512kts
22-Oct-19 18:49 36.257783 -121.642399 148 32414ft 507kts
22-Oct-19 18:50 36.139171 -121.549815 148 34222ft 502kts
22-Oct-19 18:51 36.021652 -121.458418 148 35848ft 498kts
22-Oct-19 18:52 35.904647 -121.367746 148 37190ft 497kts
22-Oct-19 18:53 35.787902 -121.277526 149 38258ft 496kts
22-Oct-19 18:54 35.671102 -121.187564 149 39080ft 497kts
22-Oct-19 18:55 35.554596 -121.098159 149 39090ft 494kts
22-Oct-19 18:56 35.446455 -120.993546 139 39078ft 498kts
22-Oct-19 18:57 35.343085 -120.881292 139 39056ft 497kts
22-Oct-19 18:58 35.239204 -120.769266 139 39057ft 497kts
22-Oct-19 18:59 35.135375 -120.657689 139 39058ft 497kts
22-Oct-19 19:00 35.029954 -120.548889 146 39070ft 496kts
22-Oct-19 19:01 34.915854 -120.456626 147 39067ft 487kts
22-Oct-19 19:03 34.803567 -120.365849 147 39069ft 485kts
22-Oct-19 19:04 34.692932 -120.276704 147 39071ft 485kts
22-Oct-19 19:05 34.580533 -120.186849 147 39072ft 485kts
22-Oct-19 19:06 34.468038 -120.097023 147 39058ft 485kts
22-Oct-19 19:07 34.355206 -120.007232 147 39022ft 485kts
22-Oct-19 19:08 34.243158 -119.918348 147 38411ft 478kts
22-Oct-19 19:09 34.132373 -119.830744 147 35265ft 477kts
22-Oct-19 19:10 34.039684 -119.713047 122 29447ft 499kts
22-Oct-19 19:11 33.965962 -119.567735 120 28454ft 505kts
22-Oct-19 19:12 33.900208 -119.437082 120 27263ft 415kts
22-Oct-19 19:13 33.842000 -119.319102 120 25525ft 416kts
22-Oct-19 19:14 33.782774 -119.198981 119 22472ft 422kts
22-Oct-19 19:15 33.723836 -119.079905 119 19971ft 408kts
22-Oct-19 19:16 33.666767 -118.964970 119 17509ft 395kts
22-Oct-19 19:17 33.611181 -118.853361 119 15138ft 383kts
22-Oct-19 19:18 33.566868 -118.740627 96 12778ft 367kts
22-Oct-19 19:18 33.577770 -118.644830 74 11955ft 343kts
22-Oct-19 19:20 33.600109 -118.515401 74 10193ft 337kts
22-Oct-19 19:21 33.618423 -118.408419 75 8877ft 306kts
22-Oct-19 19:22 33.634754 -118.312657 75 7612ft 291kts
22-Oct-19 19:22 33.648148 -118.233948 76 6390ft 286kts
22-Oct-19 19:24 33.666419 -118.126003 76 4996ft 278kts
22-Oct-19 19:25 33.681773 -118.034761 76 3834ft 274kts
22-Oct-19 19:25 33.699828 -117.963814 58 2991ft 253kts
22-Oct-19 19:26 33.746999 -117.914734 28 2993ft 210kts
22-Oct-19 19:27 33.790417 -117.884003 53 2552ft 170kts
22-Oct-19 19:28 33.776408 -117.836673 136 2014ft 161kts
22-Oct-19 19:29 33.736835 -117.830243 197 1356ft 145kts
22-Oct-19 19:30 33.700786 -117.852841 208 650ft 144kts
22-Oct-19 19:31 33.670941 -117.871862 207 64ft 35kts
22-Oct-19 19:32 33.671712 -117.868440 26 64ft 27kts
22-Oct-19 19:33 33.677363 -117.864197 90 64ft 8kts
22-Oct-19 19:34 33.677193 -117.863729 116 64ft 0kts

Navigation Log

Ident Type
Flight plan parsing failed, navigation log unavailable